sensor_id;sensor_type;location;lat;lon;timestamp;P1;durP1;ratioP1;P2;durP2;ratioP2
49502;SDS011;35409;48.776;9.204;2022-12-24T00:01:23;6.47;;;1.20;;
49502;SDS011;35409;48.776;9.204;2022-12-24T00:03:49;9.85;;;1.23;;
49502;SDS011;35409;48.776;9.204;2022-12-24T00:06:16;6.90;;;1.15;;
49502;SDS011;35409;48.776;9.204;2022-12-24T00:08:43;5.15;;;1.23;;
49502;SDS011;35409;48.776;9.204;2022-12-24T00:11:09;8.23;;;1.13;;
49502;SDS011;35409;48.776;9.204;2022-12-24T00:13:35;6.63;;;1.10;;
49502;SDS011;35409;48.776;9.204;2022-12-24T00:16:00;5.35;;;1.25;;
49502;SDS011;35409;48.776;9.204;2022-12-24T00:18:26;5.45;;;1.70;;
49502;SDS011;35409;48.776;9.204;2022-12-24T00:20:51;7.80;;;1.75;;
49502;SDS011;35409;48.776;9.204;2022-12-24T00:23:18;14.13;;;1.60;;
49502;SDS011;35409;48.776;9.204;2022-12-24T00:25:45;6.43;;;1.27;;
49502;SDS011;35409;48.776;9.204;2022-12-24T00:28:11;5.97;;;1.25;;
49502;SDS011;35409;48.776;9.204;2022-12-24T00:30:38;4.15;;;1.40;;
49502;SDS011;35409;48.776;9.204;2022-12-24T00:33:04;14.75;;;1.90;;
49502;SDS011;35409;48.776;9.204;2022-12-24T00:35:34;5.13;;;1.50;;
49502;SDS011;35409;48.776;9.204;2022-12-24T00:38:00;7.07;;;1.75;;
49502;SDS011;35409;48.776;9.204;2022-12-24T00:40:27;4.05;;;1.00;;
49502;SDS011;35409;48.776;9.204;2022-12-24T00:42:53;4.80;;;1.48;;
49502;SDS011;35409;48.776;9.204;2022-12-24T00:45:19;9.60;;;1.60;;
49502;SDS011;35409;48.776;9.204;2022-12-24T00:47:44;4.63;;;1.00;;
49502;SDS011;35409;48.776;9.204;2022-12-24T00:50:10;6.47;;;1.80;;
49502;SDS011;35409;48.776;9.204;2022-12-24T00:52:35;8.65;;;1.85;;
49502;SDS011;35409;48.776;9.204;2022-12-24T00:55:01;10.70;;;1.88;;
49502;SDS011;35409;48.776;9.204;2022-12-24T00:57:27;5.43;;;1.58;;
49502;SDS011;35409;48.776;9.204;2022-12-24T00:59:53;6.25;;;1.27;;
49502;SDS011;35409;48.776;9.204;2022-12-24T01:02:19;8.85;;;1.52;;
49502;SDS011;35409;48.776;9.204;2022-12-24T01:04:44;7.80;;;1.60;;
49502;SDS011;35409;48.776;9.204;2022-12-24T01:07:29;5.88;;;1.38;;
49502;SDS011;35409;48.776;9.204;2022-12-24T01:09:54;11.30;;;2.33;;
49502;SDS011;35409;48.776;9.204;2022-12-24T01:12:20;7.60;;;1.20;;
49502;SDS011;35409;48.776;9.204;2022-12-24T01:14:45;7.22;;;1.52;;
49502;SDS011;35409;48.776;9.204;2022-12-24T01:17:11;5.57;;;1.10;;
49502;SDS011;35409;48.776;9.204;2022-12-24T01:19:37;7.60;;;1.52;;
49502;SDS011;35409;48.776;9.204;2022-12-24T01:22:02;7.65;;;1.42;;
49502;SDS011;35409;48.776;9.204;2022-12-24T01:24:28;5.88;;;1.75;;
49502;SDS011;35409;48.776;9.204;2022-12-24T01:26:54;7.03;;;2.00;;
49502;SDS011;35409;48.776;9.204;2022-12-24T01:29:19;6.75;;;1.52;;
49502;SDS011;35409;48.776;9.204;2022-12-24T01:31:45;6.32;;;1.33;;
49502;SDS011;35409;48.776;9.204;2022-12-24T01:34:10;5.63;;;1.60;;
49502;SDS011;35409;48.776;9.204;2022-12-24T01:36:36;5.97;;;1.10;;
49502;SDS011;35409;48.776;9.204;2022-12-24T01:39:02;6.80;;;1.60;;
49502;SDS011;35409;48.776;9.204;2022-12-24T01:41:28;7.70;;;1.85;;
49502;SDS011;35409;48.776;9.204;2022-12-24T01:44:37;15.18;;;2.05;;
49502;SDS011;35409;48.776;9.204;2022-12-24T01:47:08;8.10;;;1.52;;
49502;SDS011;35409;48.776;9.204;2022-12-24T01:49:36;8.68;;;2.30;;
49502;SDS011;35409;48.776;9.204;2022-12-24T01:52:08;10.75;;;2.15;;
49502;SDS011;35409;48.776;9.204;2022-12-24T01:55:00;8.88;;;1.63;;
49502;SDS011;35409;48.776;9.204;2022-12-24T01:57:29;10.98;;;2.33;;
49502;SDS011;35409;48.776;9.204;2022-12-24T02:00:01;9.05;;;1.70;;
49502;SDS011;35409;48.776;9.204;2022-12-24T02:02:30;12.38;;;2.75;;
49502;SDS011;35409;48.776;9.204;2022-12-24T02:05:18;8.63;;;2.20;;
49502;SDS011;35409;48.776;9.204;2022-12-24T02:07:49;9.70;;;2.00;;
49502;SDS011;35409;48.776;9.204;2022-12-24T02:10:15;12.20;;;1.95;;
49502;SDS011;35409;48.776;9.204;2022-12-24T02:12:41;12.35;;;2.22;;
49502;SDS011;35409;48.776;9.204;2022-12-24T02:15:09;19.10;;;2.75;;
49502;SDS011;35409;48.776;9.204;2022-12-24T02:21:30;21.77;;;2.67;;
49502;SDS011;35409;48.776;9.204;2022-12-24T02:26:31;12.85;;;2.10;;
49502;SDS011;35409;48.776;9.204;2022-12-24T02:32:14;9.97;;;2.57;;
49502;SDS011;35409;48.776;9.204;2022-12-24T02:34:56;10.45;;;1.80;;
49502;SDS011;35409;48.776;9.204;2022-12-24T02:38:05;8.43;;;2.00;;
49502;SDS011;35409;48.776;9.204;2022-12-24T02:40:35;12.80;;;2.33;;
49502;SDS011;35409;48.776;9.204;2022-12-24T02:43:08;18.20;;;2.90;;
49502;SDS011;35409;48.776;9.204;2022-12-24T02:45:36;11.57;;;2.00;;
49502;SDS011;35409;48.776;9.204;2022-12-24T02:48:05;9.77;;;1.83;;
49502;SDS011;35409;48.776;9.204;2022-12-24T02:50:32;11.48;;;2.22;;
49502;SDS011;35409;48.776;9.204;2022-12-24T02:52:57;9.57;;;2.08;;
49502;SDS011;35409;48.776;9.204;2022-12-24T02:55:35;12.15;;;2.35;;
49502;SDS011;35409;48.776;9.204;2022-12-24T03:06:44;13.75;;;2.30;;
49502;SDS011;35409;48.776;9.204;2022-12-24T03:09:20;10.32;;;2.03;;
49502;SDS011;35409;48.776;9.204;2022-12-24T03:12:01;11.75;;;2.08;;
49502;SDS011;35409;48.776;9.204;2022-12-24T03:14:31;13.52;;;2.50;;
49502;SDS011;35409;48.776;9.204;2022-12-24T03:16:59;10.23;;;2.40;;
49502;SDS011;35409;48.776;9.204;2022-12-24T03:19:27;9.27;;;2.28;;
49502;SDS011;35409;48.776;9.204;2022-12-24T03:21:53;13.80;;;2.53;;
49502;SDS011;35409;48.776;9.204;2022-12-24T03:24:22;9.85;;;2.50;;
49502;SDS011;35409;48.776;9.204;2022-12-24T03:26:48;10.98;;;2.30;;
49502;SDS011;35409;48.776;9.204;2022-12-24T03:29:14;10.98;;;2.47;;
49502;SDS011;35409;48.776;9.204;2022-12-24T03:31:45;13.95;;;2.80;;
49502;SDS011;35409;48.776;9.204;2022-12-24T03:34:13;14.45;;;2.70;;
49502;SDS011;35409;48.776;9.204;2022-12-24T03:36:39;18.88;;;3.58;;
49502;SDS011;35409;48.776;9.204;2022-12-24T03:39:05;11.88;;;2.45;;
49502;SDS011;35409;48.776;9.204;2022-12-24T03:41:31;13.55;;;3.30;;
49502;SDS011;35409;48.776;9.204;2022-12-24T03:43:56;13.13;;;2.50;;
49502;SDS011;35409;48.776;9.204;2022-12-24T03:46:22;7.85;;;2.50;;
49502;SDS011;35409;48.776;9.204;2022-12-24T03:48:48;7.15;;;2.08;;
49502;SDS011;35409;48.776;9.204;2022-12-24T03:51:17;8.10;;;2.40;;
49502;SDS011;35409;48.776;9.204;2022-12-24T03:53:47;11.48;;;2.88;;
49502;SDS011;35409;48.776;9.204;2022-12-24T03:56:13;14.85;;;2.83;;
49502;SDS011;35409;48.776;9.204;2022-12-24T03:58:39;21.35;;;3.05;;
49502;SDS011;35409;48.776;9.204;2022-12-24T04:01:05;21.60;;;3.30;;
49502;SDS011;35409;48.776;9.204;2022-12-24T04:03:31;11.35;;;2.45;;
49502;SDS011;35409;48.776;9.204;2022-12-24T04:06:00;16.73;;;3.00;;
49502;SDS011;35409;48.776;9.204;2022-12-24T04:08:30;11.30;;;3.05;;
49502;SDS011;35409;48.776;9.204;2022-12-24T04:10:56;20.98;;;3.35;;
49502;SDS011;35409;48.776;9.204;2022-12-24T04:13:21;11.88;;;3.05;;
49502;SDS011;35409;48.776;9.204;2022-12-24T04:16:00;17.80;;;2.92;;
49502;SDS011;35409;48.776;9.204;2022-12-24T04:20:53;16.58;;;2.55;;
49502;SDS011;35409;48.776;9.204;2022-12-24T04:23:19;10.73;;;2.38;;
49502;SDS011;35409;48.776;9.204;2022-12-24T04:25:45;15.40;;;2.80;;
49502;SDS011;35409;48.776;9.204;2022-12-24T04:28:11;14.93;;;2.95;;
49502;SDS011;35409;48.776;9.204;2022-12-24T04:30:38;11.23;;;2.33;;
49502;SDS011;35409;48.776;9.204;2022-12-24T04:33:04;18.98;;;3.10;;
49502;SDS011;35409;48.776;9.204;2022-12-24T04:35:29;16.92;;;3.20;;
49502;SDS011;35409;48.776;9.204;2022-12-24T04:37:55;17.00;;;3.08;;
49502;SDS011;35409;48.776;9.204;2022-12-24T04:40:21;11.63;;;2.40;;
49502;SDS011;35409;48.776;9.204;2022-12-24T04:42:46;17.08;;;2.30;;
49502;SDS011;35409;48.776;9.204;2022-12-24T04:45:13;11.50;;;2.17;;
49502;SDS011;35409;48.776;9.204;2022-12-24T04:47:38;20.20;;;3.00;;
49502;SDS011;35409;48.776;9.204;2022-12-24T04:50:04;12.50;;;2.10;;
49502;SDS011;35409;48.776;9.204;2022-12-24T04:52:30;10.00;;;2.15;;
49502;SDS011;35409;48.776;9.204;2022-12-24T04:54:57;14.13;;;2.65;;
49502;SDS011;35409;48.776;9.204;2022-12-24T04:57:22;15.23;;;2.30;;
49502;SDS011;35409;48.776;9.204;2022-12-24T04:59:48;11.68;;;2.28;;
49502;SDS011;35409;48.776;9.204;2022-12-24T05:02:13;13.45;;;2.75;;
49502;SDS011;35409;48.776;9.204;2022-12-24T05:04:39;21.50;;;3.13;;
49502;SDS011;35409;48.776;9.204;2022-12-24T05:07:05;19.00;;;3.03;;
49502;SDS011;35409;48.776;9.204;2022-12-24T05:09:30;13.68;;;2.45;;
49502;SDS011;35409;48.776;9.204;2022-12-24T05:11:56;15.23;;;2.72;;
49502;SDS011;35409;48.776;9.204;2022-12-24T05:14:21;17.08;;;3.00;;
49502;SDS011;35409;48.776;9.204;2022-12-24T05:16:47;11.23;;;2.85;;
49502;SDS011;35409;48.776;9.204;2022-12-24T05:19:12;15.15;;;2.90;;
49502;SDS011;35409;48.776;9.204;2022-12-24T05:21:38;12.13;;;2.40;;
49502;SDS011;35409;48.776;9.204;2022-12-24T05:24:04;14.85;;;2.45;;
49502;SDS011;35409;48.776;9.204;2022-12-24T05:26:49;17.98;;;3.88;;
49502;SDS011;35409;48.776;9.204;2022-12-24T05:29:17;24.23;;;3.92;;
49502;SDS011;35409;48.776;9.204;2022-12-24T05:31:43;16.52;;;3.60;;
49502;SDS011;35409;48.776;9.204;2022-12-24T05:34:09;18.42;;;3.08;;
49502;SDS011;35409;48.776;9.204;2022-12-24T05:36:35;12.57;;;2.58;;
49502;SDS011;35409;48.776;9.204;2022-12-24T05:39:01;16.92;;;2.92;;
49502;SDS011;35409;48.776;9.204;2022-12-24T05:41:27;17.13;;;2.85;;
49502;SDS011;35409;48.776;9.204;2022-12-24T05:43:53;13.48;;;2.67;;
49502;SDS011;35409;48.776;9.204;2022-12-24T05:46:20;12.82;;;2.08;;
49502;SDS011;35409;48.776;9.204;2022-12-24T05:48:47;12.48;;;2.17;;
49502;SDS011;35409;48.776;9.204;2022-12-24T05:51:13;14.57;;;2.45;;
49502;SDS011;35409;48.776;9.204;2022-12-24T05:53:42;12.63;;;2.63;;
49502;SDS011;35409;48.776;9.204;2022-12-24T05:56:09;15.63;;;2.33;;
49502;SDS011;35409;48.776;9.204;2022-12-24T05:58:36;17.30;;;2.50;;
49502;SDS011;35409;48.776;9.204;2022-12-24T06:01:03;18.48;;;3.42;;
49502;SDS011;35409;48.776;9.204;2022-12-24T06:03:30;14.60;;;2.50;;
49502;SDS011;35409;48.776;9.204;2022-12-24T06:05:57;15.82;;;2.53;;
49502;SDS011;35409;48.776;9.204;2022-12-24T06:08:48;16.30;;;2.20;;
49502;SDS011;35409;48.776;9.204;2022-12-24T06:11:16;19.83;;;3.33;;
49502;SDS011;35409;48.776;9.204;2022-12-24T06:13:43;18.05;;;2.92;;
49502;SDS011;35409;48.776;9.204;2022-12-24T06:16:14;13.68;;;2.17;;
49502;SDS011;35409;48.776;9.204;2022-12-24T06:18:41;7.60;;;2.28;;
49502;SDS011;35409;48.776;9.204;2022-12-24T06:21:08;9.30;;;2.30;;
49502;SDS011;35409;48.776;9.204;2022-12-24T06:23:35;13.10;;;3.30;;
49502;SDS011;35409;48.776;9.204;2022-12-24T06:26:03;10.98;;;2.78;;
49502;SDS011;35409;48.776;9.204;2022-12-24T06:28:31;15.23;;;2.20;;
49502;SDS011;35409;48.776;9.204;2022-12-24T06:30:59;9.30;;;2.28;;
49502;SDS011;35409;48.776;9.204;2022-12-24T06:33:26;12.60;;;2.13;;
49502;SDS011;35409;48.776;9.204;2022-12-24T06:35:52;12.80;;;3.25;;
49502;SDS011;35409;48.776;9.204;2022-12-24T06:38:17;10.43;;;1.92;;
49502;SDS011;35409;48.776;9.204;2022-12-24T06:40:44;12.65;;;2.33;;
49502;SDS011;35409;48.776;9.204;2022-12-24T06:43:10;8.75;;;2.15;;
49502;SDS011;35409;48.776;9.204;2022-12-24T06:45:36;10.82;;;2.08;;
49502;SDS011;35409;48.776;9.204;2022-12-24T06:48:02;15.73;;;2.67;;
49502;SDS011;35409;48.776;9.204;2022-12-24T06:50:28;11.27;;;2.70;;
49502;SDS011;35409;48.776;9.204;2022-12-24T06:52:54;9.75;;;2.55;;
49502;SDS011;35409;48.776;9.204;2022-12-24T06:55:19;13.95;;;2.67;;
49502;SDS011;35409;48.776;9.204;2022-12-24T06:57:46;10.35;;;2.25;;
49502;SDS011;35409;48.776;9.204;2022-12-24T07:00:12;14.32;;;2.60;;
49502;SDS011;35409;48.776;9.204;2022-12-24T07:02:38;14.02;;;3.53;;
49502;SDS011;35409;48.776;9.204;2022-12-24T07:05:05;13.02;;;3.95;;
49502;SDS011;35409;48.776;9.204;2022-12-24T07:07:31;16.60;;;3.47;;
49502;SDS011;35409;48.776;9.204;2022-12-24T07:09:56;17.20;;;2.72;;
49502;SDS011;35409;48.776;9.204;2022-12-24T07:12:22;10.63;;;2.65;;
49502;SDS011;35409;48.776;9.204;2022-12-24T07:14:48;10.57;;;2.45;;
49502;SDS011;35409;48.776;9.204;2022-12-24T07:17:13;12.30;;;2.65;;
49502;SDS011;35409;48.776;9.204;2022-12-24T07:19:39;13.55;;;2.33;;
49502;SDS011;35409;48.776;9.204;2022-12-24T07:22:04;12.05;;;2.67;;
49502;SDS011;35409;48.776;9.204;2022-12-24T07:24:30;9.80;;;2.58;;
49502;SDS011;35409;48.776;9.204;2022-12-24T07:26:55;10.80;;;3.00;;
49502;SDS011;35409;48.776;9.204;2022-12-24T07:29:21;13.40;;;2.67;;
49502;SDS011;35409;48.776;9.204;2022-12-24T07:31:46;11.13;;;2.60;;
49502;SDS011;35409;48.776;9.204;2022-12-24T07:34:12;11.95;;;2.70;;
49502;SDS011;35409;48.776;9.204;2022-12-24T07:36:38;8.75;;;2.35;;
49502;SDS011;35409;48.776;9.204;2022-12-24T07:39:03;11.82;;;3.03;;
49502;SDS011;35409;48.776;9.204;2022-12-24T07:41:29;17.55;;;3.22;;
49502;SDS011;35409;48.776;9.204;2022-12-24T07:43:54;15.82;;;3.20;;
49502;SDS011;35409;48.776;9.204;2022-12-24T07:46:20;12.20;;;3.42;;
49502;SDS011;35409;48.776;9.204;2022-12-24T07:48:46;10.35;;;2.97;;
49502;SDS011;35409;48.776;9.204;2022-12-24T07:51:11;11.32;;;3.40;;
49502;SDS011;35409;48.776;9.204;2022-12-24T07:53:37;19.02;;;3.38;;
49502;SDS011;35409;48.776;9.204;2022-12-24T07:56:03;11.98;;;2.75;;
49502;SDS011;35409;48.776;9.204;2022-12-24T07:58:29;12.80;;;2.65;;
49502;SDS011;35409;48.776;9.204;2022-12-24T08:00:58;11.93;;;2.72;;
49502;SDS011;35409;48.776;9.204;2022-12-24T08:03:24;17.17;;;2.97;;
49502;SDS011;35409;48.776;9.204;2022-12-24T08:05:51;7.85;;;2.40;;
49502;SDS011;35409;48.776;9.204;2022-12-24T08:08:17;11.25;;;2.40;;
49502;SDS011;35409;48.776;9.204;2022-12-24T08:10:43;11.20;;;2.58;;
49502;SDS011;35409;48.776;9.204;2022-12-24T08:13:10;14.10;;;3.53;;
49502;SDS011;35409;48.776;9.204;2022-12-24T08:15:36;16.05;;;2.20;;
49502;SDS011;35409;48.776;9.204;2022-12-24T08:18:01;14.15;;;2.97;;
49502;SDS011;35409;48.776;9.204;2022-12-24T08:20:27;15.93;;;3.47;;
49502;SDS011;35409;48.776;9.204;2022-12-24T08:22:53;9.57;;;2.33;;
49502;SDS011;35409;48.776;9.204;2022-12-24T08:25:18;13.07;;;2.78;;
49502;SDS011;35409;48.776;9.204;2022-12-24T08:27:44;14.15;;;2.63;;
49502;SDS011;35409;48.776;9.204;2022-12-24T08:30:11;12.30;;;2.35;;
49502;SDS011;35409;48.776;9.204;2022-12-24T08:32:37;8.50;;;2.20;;
49502;SDS011;35409;48.776;9.204;2022-12-24T08:35:03;10.10;;;1.90;;
49502;SDS011;35409;48.776;9.204;2022-12-24T08:37:28;10.27;;;2.20;;
49502;SDS011;35409;48.776;9.204;2022-12-24T08:39:54;11.55;;;2.00;;
49502;SDS011;35409;48.776;9.204;2022-12-24T08:42:20;12.63;;;2.80;;
49502;SDS011;35409;48.776;9.204;2022-12-24T08:44:45;13.80;;;3.28;;
49502;SDS011;35409;48.776;9.204;2022-12-24T08:47:11;13.13;;;2.60;;
49502;SDS011;35409;48.776;9.204;2022-12-24T08:49:36;18.85;;;3.13;;
49502;SDS011;35409;48.776;9.204;2022-12-24T08:52:03;15.82;;;2.67;;
49502;SDS011;35409;48.776;9.204;2022-12-24T08:54:29;9.55;;;2.08;;
49502;SDS011;35409;48.776;9.204;2022-12-24T08:56:54;15.32;;;2.83;;
49502;SDS011;35409;48.776;9.204;2022-12-24T08:59:20;15.18;;;2.40;;
49502;SDS011;35409;48.776;9.204;2022-12-24T09:01:46;12.98;;;2.30;;
49502;SDS011;35409;48.776;9.204;2022-12-24T09:04:11;14.45;;;2.88;;
49502;SDS011;35409;48.776;9.204;2022-12-24T09:06:37;13.25;;;2.67;;
49502;SDS011;35409;48.776;9.204;2022-12-24T09:09:03;8.95;;;2.88;;
49502;SDS011;35409;48.776;9.204;2022-12-24T09:11:29;12.07;;;2.53;;
49502;SDS011;35409;48.776;9.204;2022-12-24T09:13:55;14.98;;;2.40;;
49502;SDS011;35409;48.776;9.204;2022-12-24T09:16:21;12.10;;;2.22;;
49502;SDS011;35409;48.776;9.204;2022-12-24T09:18:47;11.35;;;2.70;;
49502;SDS011;35409;48.776;9.204;2022-12-24T09:21:13;12.80;;;2.47;;
49502;SDS011;35409;48.776;9.204;2022-12-24T09:23:40;18.02;;;2.60;;
49502;SDS011;35409;48.776;9.204;2022-12-24T09:26:07;18.52;;;2.65;;
49502;SDS011;35409;48.776;9.204;2022-12-24T09:28:36;13.98;;;2.88;;
49502;SDS011;35409;48.776;9.204;2022-12-24T09:31:02;18.50;;;3.67;;
49502;SDS011;35409;48.776;9.204;2022-12-24T09:33:30;13.68;;;2.92;;
49502;SDS011;35409;48.776;9.204;2022-12-24T09:35:57;12.27;;;2.67;;
49502;SDS011;35409;48.776;9.204;2022-12-24T09:38:23;10.32;;;2.30;;
49502;SDS011;35409;48.776;9.204;2022-12-24T09:40:49;15.55;;;3.13;;
49502;SDS011;35409;48.776;9.204;2022-12-24T09:43:17;14.57;;;2.40;;
49502;SDS011;35409;48.776;9.204;2022-12-24T09:46:33;14.45;;;2.78;;
49502;SDS011;35409;48.776;9.204;2022-12-24T09:48:53;17.00;;;3.08;;
49502;SDS011;35409;48.776;9.204;2022-12-24T09:51:33;13.18;;;2.95;;
49502;SDS011;35409;48.776;9.204;2022-12-24T09:54:12;15.10;;;3.88;;
49502;SDS011;35409;48.776;9.204;2022-12-24T09:56:45;14.55;;;3.38;;
49502;SDS011;35409;48.776;9.204;2022-12-24T10:01:39;11.50;;;2.63;;
49502;SDS011;35409;48.776;9.204;2022-12-24T10:04:12;13.15;;;3.47;;
49502;SDS011;35409;48.776;9.204;2022-12-24T10:09:27;12.15;;;3.28;;
49502;SDS011;35409;48.776;9.204;2022-12-24T10:14:55;11.85;;;2.63;;
49502;SDS011;35409;48.776;9.204;2022-12-24T10:17:53;15.63;;;2.63;;
49502;SDS011;35409;48.776;9.204;2022-12-24T10:28:40;12.57;;;2.83;;
49502;SDS011;35409;48.776;9.204;2022-12-24T10:31:10;12.13;;;2.55;;
49502;SDS011;35409;48.776;9.204;2022-12-24T10:33:41;11.27;;;2.55;;
49502;SDS011;35409;48.776;9.204;2022-12-24T10:36:10;12.57;;;2.55;;
49502;SDS011;35409;48.776;9.204;2022-12-24T10:38:43;11.45;;;2.80;;
49502;SDS011;35409;48.776;9.204;2022-12-24T10:41:09;11.30;;;2.30;;
49502;SDS011;35409;48.776;9.204;2022-12-24T10:43:36;11.75;;;3.30;;
49502;SDS011;35409;48.776;9.204;2022-12-24T10:46:05;14.18;;;2.67;;
49502;SDS011;35409;48.776;9.204;2022-12-24T10:48:40;15.38;;;3.50;;
49502;SDS011;35409;48.776;9.204;2022-12-24T10:51:10;18.08;;;3.15;;
49502;SDS011;35409;48.776;9.204;2022-12-24T10:53:47;15.98;;;3.13;;
49502;SDS011;35409;48.776;9.204;2022-12-24T10:56:18;15.82;;;3.10;;
49502;SDS011;35409;48.776;9.204;2022-12-24T10:58:49;19.30;;;3.60;;
49502;SDS011;35409;48.776;9.204;2022-12-24T11:01:19;13.20;;;2.60;;
49502;SDS011;35409;48.776;9.204;2022-12-24T11:04:05;13.35;;;3.08;;
49502;SDS011;35409;48.776;9.204;2022-12-24T11:06:50;9.45;;;2.72;;
49502;SDS011;35409;48.776;9.204;2022-12-24T11:09:21;13.00;;;3.40;;
49502;SDS011;35409;48.776;9.204;2022-12-24T11:11:49;20.27;;;3.60;;
49502;SDS011;35409;48.776;9.204;2022-12-24T11:14:16;10.75;;;2.60;;
49502;SDS011;35409;48.776;9.204;2022-12-24T11:16:53;13.45;;;3.15;;
49502;SDS011;35409;48.776;9.204;2022-12-24T11:19:53;10.45;;;3.00;;
49502;SDS011;35409;48.776;9.204;2022-12-24T11:22:26;8.55;;;3.22;;
49502;SDS011;35409;48.776;9.204;2022-12-24T11:27:32;13.52;;;3.28;;
49502;SDS011;35409;48.776;9.204;2022-12-24T11:32:42;9.10;;;2.55;;
49502;SDS011;35409;48.776;9.204;2022-12-24T11:35:16;8.82;;;3.08;;
49502;SDS011;35409;48.776;9.204;2022-12-24T11:37:47;13.38;;;4.10;;
49502;SDS011;35409;48.776;9.204;2022-12-24T11:43:02;11.80;;;2.67;;
49502;SDS011;35409;48.776;9.204;2022-12-24T11:45:29;9.25;;;2.42;;
49502;SDS011;35409;48.776;9.204;2022-12-24T11:47:57;10.63;;;2.53;;
49502;SDS011;35409;48.776;9.204;2022-12-24T11:53:17;15.40;;;2.97;;
49502;SDS011;35409;48.776;9.204;2022-12-24T11:58:13;15.32;;;3.17;;
49502;SDS011;35409;48.776;9.204;2022-12-24T12:00:47;15.88;;;2.67;;
49502;SDS011;35409;48.776;9.204;2022-12-24T12:03:24;11.52;;;2.55;;
49502;SDS011;35409;48.776;9.204;2022-12-24T12:05:57;15.80;;;3.05;;
49502;SDS011;35409;48.776;9.204;2022-12-24T12:08:25;9.60;;;2.97;;
49502;SDS011;35409;48.776;9.204;2022-12-24T12:10:52;12.50;;;3.00;;
49502;SDS011;35409;48.776;9.204;2022-12-24T12:13:26;14.20;;;2.70;;
49502;SDS011;35409;48.776;9.204;2022-12-24T12:18:47;9.38;;;2.65;;
49502;SDS011;35409;48.776;9.204;2022-12-24T12:21:20;9.52;;;3.08;;
49502;SDS011;35409;48.776;9.204;2022-12-24T12:23:53;10.55;;;2.83;;
49502;SDS011;35409;48.776;9.204;2022-12-24T12:26:25;12.65;;;2.28;;
49502;SDS011;35409;48.776;9.204;2022-12-24T12:31:47;11.90;;;2.67;;
49502;SDS011;35409;48.776;9.204;2022-12-24T12:34:35;10.70;;;3.00;;
49502;SDS011;35409;48.776;9.204;2022-12-24T12:37:07;10.73;;;2.70;;
49502;SDS011;35409;48.776;9.204;2022-12-24T12:39:55;9.20;;;2.10;;
49502;SDS011;35409;48.776;9.204;2022-12-24T12:42:28;14.02;;;3.25;;
49502;SDS011;35409;48.776;9.204;2022-12-24T12:45:00;12.15;;;2.85;;
49502;SDS011;35409;48.776;9.204;2022-12-24T12:47:36;10.52;;;2.60;;
49502;SDS011;35409;48.776;9.204;2022-12-24T12:50:10;14.38;;;3.38;;
49502;SDS011;35409;48.776;9.204;2022-12-24T13:09:44;8.05;;;2.10;;
49502;SDS011;35409;48.776;9.204;2022-12-24T13:18:05;9.43;;;2.80;;
49502;SDS011;35409;48.776;9.204;2022-12-24T13:20:37;11.20;;;2.53;;
49502;SDS011;35409;48.776;9.204;2022-12-24T13:23:16;10.82;;;3.00;;
49502;SDS011;35409;48.776;9.204;2022-12-24T13:25:45;13.25;;;3.03;;
49502;SDS011;35409;48.776;9.204;2022-12-24T13:28:34;17.08;;;3.90;;
49502;SDS011;35409;48.776;9.204;2022-12-24T13:36:09;12.05;;;3.08;;
49502;SDS011;35409;48.776;9.204;2022-12-24T13:46:46;9.18;;;2.38;;
49502;SDS011;35409;48.776;9.204;2022-12-24T13:51:51;10.60;;;2.55;;
49502;SDS011;35409;48.776;9.204;2022-12-24T13:54:39;7.97;;;2.40;;
49502;SDS011;35409;48.776;9.204;2022-12-24T13:59:56;9.98;;;2.85;;
49502;SDS011;35409;48.776;9.204;2022-12-24T14:02:34;13.32;;;2.95;;
49502;SDS011;35409;48.776;9.204;2022-12-24T14:05:04;8.32;;;3.20;;
49502;SDS011;35409;48.776;9.204;2022-12-24T14:07:43;13.38;;;3.47;;
49502;SDS011;35409;48.776;9.204;2022-12-24T14:10:19;8.68;;;3.22;;
49502;SDS011;35409;48.776;9.204;2022-12-24T14:12:49;8.73;;;3.45;;
49502;SDS011;35409;48.776;9.204;2022-12-24T14:18:17;12.98;;;3.42;;
49502;SDS011;35409;48.776;9.204;2022-12-24T14:20:47;11.15;;;2.88;;
49502;SDS011;35409;48.776;9.204;2022-12-24T14:26:21;11.15;;;3.65;;
49502;SDS011;35409;48.776;9.204;2022-12-24T14:28:55;12.35;;;3.28;;
49502;SDS011;35409;48.776;9.204;2022-12-24T14:31:23;19.67;;;5.43;;
49502;SDS011;35409;48.776;9.204;2022-12-24T14:33:49;14.32;;;5.50;;
49502;SDS011;35409;48.776;9.204;2022-12-24T14:36:17;10.93;;;4.05;;
49502;SDS011;35409;48.776;9.204;2022-12-24T14:41:26;13.52;;;5.10;;
49502;SDS011;35409;48.776;9.204;2022-12-24T14:44:08;14.00;;;4.60;;
49502;SDS011;35409;48.776;9.204;2022-12-24T14:46:52;12.55;;;4.60;;
49502;SDS011;35409;48.776;9.204;2022-12-24T14:49:26;11.27;;;4.28;;
49502;SDS011;35409;48.776;9.204;2022-12-24T14:52:21;14.52;;;4.32;;
49502;SDS011;35409;48.776;9.204;2022-12-24T14:54:59;11.55;;;3.90;;
49502;SDS011;35409;48.776;9.204;2022-12-24T14:57:45;13.02;;;3.70;;
49502;SDS011;35409;48.776;9.204;2022-12-24T15:00:18;13.43;;;4.60;;
49502;SDS011;35409;48.776;9.204;2022-12-24T15:02:45;14.60;;;4.22;;
49502;SDS011;35409;48.776;9.204;2022-12-24T15:05:22;11.00;;;4.20;;
49502;SDS011;35409;48.776;9.204;2022-12-24T15:12:57;12.15;;;4.55;;
49502;SDS011;35409;48.776;9.204;2022-12-24T15:15:27;14.38;;;4.13;;
49502;SDS011;35409;48.776;9.204;2022-12-24T15:17:53;14.40;;;4.45;;
49502;SDS011;35409;48.776;9.204;2022-12-24T15:20:20;19.25;;;3.90;;
49502;SDS011;35409;48.776;9.204;2022-12-24T15:22:49;11.88;;;3.17;;
49502;SDS011;35409;48.776;9.204;2022-12-24T15:25:18;15.50;;;3.72;;
49502;SDS011;35409;48.776;9.204;2022-12-24T15:27:49;14.57;;;3.45;;
49502;SDS011;35409;48.776;9.204;2022-12-24T15:30:17;14.80;;;3.60;;
49502;SDS011;35409;48.776;9.204;2022-12-24T15:32:54;14.57;;;4.05;;
49502;SDS011;35409;48.776;9.204;2022-12-24T15:35:32;19.38;;;3.78;;
49502;SDS011;35409;48.776;9.204;2022-12-24T15:38:01;18.27;;;3.80;;
49502;SDS011;35409;48.776;9.204;2022-12-24T15:40:28;13.23;;;3.22;;
49502;SDS011;35409;48.776;9.204;2022-12-24T15:42:54;16.27;;;3.53;;
49502;SDS011;35409;48.776;9.204;2022-12-24T15:47:58;15.50;;;4.15;;
49502;SDS011;35409;48.776;9.204;2022-12-24T15:50:33;18.20;;;4.18;;
49502;SDS011;35409;48.776;9.204;2022-12-24T15:53:10;11.75;;;3.45;;
49502;SDS011;35409;48.776;9.204;2022-12-24T15:55:39;14.27;;;3.75;;
49502;SDS011;35409;48.776;9.204;2022-12-24T15:58:17;12.85;;;3.42;;
49502;SDS011;35409;48.776;9.204;2022-12-24T16:00:59;17.17;;;4.93;;
49502;SDS011;35409;48.776;9.204;2022-12-24T16:03:28;9.48;;;4.18;;
49502;SDS011;35409;48.776;9.204;2022-12-24T16:06:01;12.05;;;4.93;;
49502;SDS011;35409;48.776;9.204;2022-12-24T16:08:32;15.52;;;4.75;;
49502;SDS011;35409;48.776;9.204;2022-12-24T16:11:09;15.57;;;4.60;;
49502;SDS011;35409;48.776;9.204;2022-12-24T16:13:37;12.35;;;4.22;;
49502;SDS011;35409;48.776;9.204;2022-12-24T16:19:24;14.95;;;3.90;;
49502;SDS011;35409;48.776;9.204;2022-12-24T16:21:56;17.38;;;4.63;;
49502;SDS011;35409;48.776;9.204;2022-12-24T16:24:24;14.27;;;4.75;;
49502;SDS011;35409;48.776;9.204;2022-12-24T16:26:53;16.63;;;4.30;;
49502;SDS011;35409;48.776;9.204;2022-12-24T16:29:19;10.10;;;3.08;;
49502;SDS011;35409;48.776;9.204;2022-12-24T16:31:50;10.88;;;3.60;;
49502;SDS011;35409;48.776;9.204;2022-12-24T16:34:22;11.27;;;3.47;;
49502;SDS011;35409;48.776;9.204;2022-12-24T16:36:49;13.07;;;4.43;;
49502;SDS011;35409;48.776;9.204;2022-12-24T16:39:16;14.35;;;4.20;;
49502;SDS011;35409;48.776;9.204;2022-12-24T16:42:03;15.32;;;5.03;;
49502;SDS011;35409;48.776;9.204;2022-12-24T16:44:47;12.43;;;4.55;;
49502;SDS011;35409;48.776;9.204;2022-12-24T16:47:25;12.77;;;5.50;;
49502;SDS011;35409;48.776;9.204;2022-12-24T16:49:54;17.13;;;6.32;;